Time;durP1;ratioP1;P1;durP2;ratioP2;P2;SDS_P1;SDS_P2;PMS_P1;PMS_P2;Temp;Humidity;BMP_temperature;BMP_pressure;BME280_temperature;BME280_humidity;BME280_pressure;Samples;Min_cycle;Max_cycle;Signal;HPM_P1;HPM_P2
2022/05/05 00:00:11;;;;;;;9.98;7.15;;;11.50;99.90;;;;;;6272272;22;20175;-69
2022/05/05 00:02:39;;;;;;;7.97;7.17;;;11.40;99.90;;;;;;6273001;22;20176;-69
2022/05/05 00:05:07;;;;;;;9.10;6.93;;;11.20;99.90;;;;;;6272820;22;20445;-69
2022/05/05 00:07:33;;;;;;;7.72;6.90;;;11.20;99.90;;;;;;6272624;22;20203;-69
2022/05/05 00:14:23;;;;;;;8.20;7.40;;;11.10;99.90;;;;;;6273713;22;20686;-69
2022/05/05 00:15:33;;;;;;;8.07;7.28;;;11.20;99.90;;;;;;6264823;22;22054;-70
2022/05/05 00:18:01;;;;;;;7.97;7.18;;;11.20;99.90;;;;;;6273389;22;20257;-70
2022/05/05 00:20:28;;;;;;;7.65;6.90;;;11.20;99.90;;;;;;6274273;22;20512;-71
2022/05/05 00:22:55;;;;;;;8.10;6.93;;;11.30;99.90;;;;;;6274237;22;20179;-69
2022/05/05 00:25:21;;;;;;;8.38;7.57;;;11.30;99.90;;;;;;6274266;22;20192;-70
2022/05/05 00:27:48;;;;;;;7.88;7.18;;;11.30;99.90;;;;;;6273472;22;20742;-71
2022/05/05 00:30:15;;;;;;;7.53;6.72;;;11.20;99.90;;;;;;6273289;22;20172;-68
2022/05/05 00:32:41;;;;;;;8.85;7.88;;;11.20;99.90;;;;;;6274200;22;20176;-70
2022/05/05 00:35:10;;;;;;;7.95;7.15;;;11.20;99.90;;;;;;6274277;22;20179;-71
2022/05/05 00:37:36;;;;;;;8.38;7.13;;;11.20;99.90;;;;;;6273833;22;20196;-71
2022/05/05 00:40:04;;;;;;;8.82;7.93;;;11.20;99.90;;;;;;6273015;22;20182;-71
2022/05/05 00:42:30;;;;;;;8.63;7.75;;;11.20;99.90;;;;;;6274197;22;20278;-70
2022/05/05 00:44:58;;;;;;;8.23;7.43;;;11.20;99.90;;;;;;6273996;22;20509;-71
2022/05/05 00:47:25;;;;;;;9.23;7.90;;;11.10;99.90;;;;;;6273806;22;20171;-71
2022/05/05 00:49:52;;;;;;;8.00;7.30;;;11.00;99.90;;;;;;6273285;22;20179;-71
2022/05/05 00:52:20;;;;;;;8.40;7.70;;;11.00;99.90;;;;;;6273840;22;20571;-70
2022/05/05 00:54:47;;;;;;;8.13;7.43;;;10.90;99.90;;;;;;6274031;22;20183;-70
2022/05/05 00:57:14;;;;;;;7.88;7.18;;;10.90;99.90;;;;;;6273694;22;20172;-71
2022/05/05 00:59:43;;;;;;;7.80;7.10;;;10.90;99.90;;;;;;6272887;22;20183;-70
2022/05/05 01:02:09;;;;;;;7.43;6.72;;;10.80;99.90;;;;;;6273919;22;20176;-70
2022/05/05 01:04:37;;;;;;;8.15;7.40;;;10.70;99.90;;;;;;6273695;22;20172;-71
2022/05/05 01:07:04;;;;;;;8.32;7.40;;;10.70;99.90;;;;;;6273421;22;20195;-71
2022/05/05 01:09:34;;;;;;;7.35;6.65;;;10.60;99.90;;;;;;6272587;22;20199;-71
2022/05/05 01:12:02;;;;;;;8.60;7.70;;;10.50;99.90;;;;;;6273111;22;20179;-71
2022/05/05 01:14:30;;;;;;;8.15;7.30;;;10.50;99.90;;;;;;6273829;22;20571;-71
2022/05/05 01:16:58;;;;;;;8.70;7.80;;;10.40;99.90;;;;;;6273456;22;20183;-70
2022/05/05 01:19:25;;;;;;;7.82;7.22;;;10.30;99.90;;;;;;6272517;22;20195;-71
2022/05/05 01:21:54;;;;;;;7.63;6.80;;;10.30;99.90;;;;;;6273377;22;20182;-70
2022/05/05 01:28:10;;;;;;;8.50;7.80;;;10.20;99.90;;;;;;6273825;22;20178;-71
2022/05/05 01:29:54;;;;;;;13.48;7.47;;;10.10;99.90;;;;;;6272766;22;20285;-70
2022/05/05 01:32:21;;;;;;;8.85;8.02;;;10.00;99.90;;;;;;6273119;22;20703;-70
2022/05/05 01:34:48;;;;;;;8.32;7.30;;;10.00;99.90;;;;;;6273605;22;20176;-70
2022/05/05 01:37:16;;;;;;;8.30;7.25;;;10.00;99.90;;;;;;6272955;22;20171;-69
2022/05/05 01:39:42;;;;;;;8.57;6.85;;;9.90;99.90;;;;;;6272807;22;20263;-70
2022/05/05 01:42:09;;;;;;;7.38;6.68;;;9.90;99.90;;;;;;6273752;22;20179;-70
2022/05/05 01:44:36;;;;;;;7.15;6.50;;;9.90;99.90;;;;;;6273394;22;20183;-69
2022/05/05 01:47:03;;;;;;;8.07;7.38;;;9.80;99.90;;;;;;6272929;22;20195;-70
2022/05/05 01:49:29;;;;;;;7.72;7.05;;;9.80;99.90;;;;;;6272645;22;20210;-70
2022/05/05 01:51:56;;;;;;;7.45;6.80;;;9.80;99.90;;;;;;6273505;22;20187;-70
2022/05/05 01:54:24;;;;;;;8.10;7.30;;;9.80;99.90;;;;;;6273095;22;20648;-69
2022/05/05 01:56:51;;;;;;;8.48;7.15;;;9.70;99.90;;;;;;6273576;22;20171;-69
2022/05/05 01:59:18;;;;;;;9.90;7.25;;;9.70;99.90;;;;;;6272217;22;20199;-70
2022/05/05 02:01:45;;;;;;;9.10;7.28;;;9.80;99.90;;;;;;6273475;22;20198;-70
2022/05/05 02:04:11;;;;;;;7.85;6.88;;;9.70;99.90;;;;;;6273556;22;20210;-70
2022/05/05 02:06:38;;;;;;;7.35;6.60;;;9.70;99.90;;;;;;6273200;22;20195;-69
2022/05/05 02:09:05;;;;;;;7.97;6.88;;;9.70;99.90;;;;;;6272539;22;20196;-70
2022/05/05 02:11:33;;;;;;;8.50;7.70;;;9.70;99.90;;;;;;6273104;22;20774;-70
2022/05/05 02:13:59;;;;;;;7.57;6.88;;;9.70;99.90;;;;;;6274039;22;20172;-70
2022/05/05 02:16:26;;;;;;;7.72;7.03;;;9.70;99.90;;;;;;6272723;22;20205;-70
2022/05/05 02:18:53;;;;;;;8.13;7.43;;;9.70;99.90;;;;;;6272961;22;20202;-70
2022/05/05 02:21:20;;;;;;;7.50;6.90;;;9.70;99.90;;;;;;6273729;22;20176;-71
2022/05/05 02:23:46;;;;;;;7.47;6.78;;;9.80;99.90;;;;;;6273770;22;20179;-70
2022/05/05 02:26:13;;;;;;;7.07;6.47;;;9.80;99.90;;;;;;6275629;22;20195;-70
2022/05/05 02:28:41;;;;;;;7.57;6.57;;;9.80;99.90;;;;;;6274694;22;20203;-70
2022/05/05 02:31:08;;;;;;;7.63;7.00;;;9.80;99.90;;;;;;6275570;22;20195;-70
2022/05/05 02:33:34;;;;;;;7.70;7.00;;;9.80;99.90;;;;;;6275405;22;20176;-70
2022/05/05 02:38:47;;;;;;;8.15;6.90;;;9.70;99.90;;;;;;6274576;22;20364;-70
2022/05/05 02:41:14;;;;;;;7.80;7.00;;;9.60;99.90;;;;;;6275374;22;20551;-69
2022/05/05 02:43:42;;;;;;;8.10;7.35;;;9.50;99.90;;;;;;6274983;22;20176;-70
2022/05/05 02:46:10;;;;;;;8.80;7.38;;;9.50;99.90;;;;;;6275292;22;20187;-69
2022/05/05 02:48:37;;;;;;;7.82;7.07;;;9.50;99.90;;;;;;6274460;22;20501;-68
2022/05/05 02:51:04;;;;;;;7.45;6.85;;;9.50;99.90;;;;;;6275223;22;20505;-68
2022/05/05 02:56:29;;;;;;;7.70;6.90;;;9.50;99.90;;;;;;6151338;23;20535;-68
2022/05/05 02:58:57;;;;;;;7.30;6.68;;;9.60;99.90;;;;;;6150645;23;20214;-69
2022/05/05 03:01:24;;;;;;;7.30;6.60;;;9.50;99.90;;;;;;6204943;22;20183;-69
2022/05/05 03:03:51;;;;;;;6.75;6.05;;;9.50;99.90;;;;;;6275874;22;20183;-69
2022/05/05 03:06:17;;;;;;;8.25;7.45;;;9.50;99.90;;;;;;6275100;22;20187;-70
2022/05/05 03:08:44;;;;;;;7.95;7.15;;;9.50;99.90;;;;;;6274424;22;20611;-69
2022/05/05 03:11:11;;;;;;;8.98;7.85;;;9.50;99.90;;;;;;6275008;22;20258;-69
2022/05/05 03:13:39;;;;;;;8.73;7.45;;;9.50;99.90;;;;;;6275052;22;20603;-69
2022/05/05 03:16:07;;;;;;;9.10;6.57;;;9.50;99.90;;;;;;6274651;22;20637;-69
2022/05/05 03:18:34;;;;;;;8.10;7.30;;;9.40;99.90;;;;;;6273962;22;20192;-70
2022/05/05 03:21:00;;;;;;;8.65;7.75;;;9.40;99.90;;;;;;6275196;22;20484;-69
2022/05/05 03:23:27;;;;;;;8.00;7.20;;;9.30;99.90;;;;;;6274573;22;20193;-68
2022/05/05 03:25:54;;;;;;;7.68;6.85;;;9.30;99.90;;;;;;6275110;22;20195;-70
2022/05/05 03:28:21;;;;;;;8.45;7.55;;;9.30;99.90;;;;;;6274154;22;20202;-70
2022/05/05 03:30:49;;;;;;;8.95;7.28;;;9.30;99.90;;;;;;6274697;22;20184;-68
2022/05/05 03:33:17;;;;;;;8.57;7.78;;;9.30;99.90;;;;;;6274202;22;20176;-68
2022/05/05 03:35:44;;;;;;;9.35;8.35;;;9.30;99.90;;;;;;6273473;22;20176;-68
2022/05/05 03:38:11;;;;;;;8.25;7.45;;;9.30;99.90;;;;;;6273838;22;20712;-69
2022/05/05 03:40:37;;;;;;;8.07;7.32;;;9.30;99.90;;;;;;6274770;22;20194;-69
2022/05/05 03:43:05;;;;;;;7.35;6.75;;;9.30;99.90;;;;;;6274459;22;20182;-68
2022/05/05 03:45:31;;;;;;;8.38;7.55;;;9.30;99.90;;;;;;6274294;22;20203;-69
2022/05/05 03:47:58;;;;;;;8.57;7.60;;;9.40;99.90;;;;;;6274608;22;20192;-69
2022/05/05 03:50:26;;;;;;;8.10;7.40;;;9.40;99.90;;;;;;6274737;22;20172;-69
2022/05/05 03:52:53;;;;;;;7.38;6.60;;;9.40;99.90;;;;;;6274979;22;20373;-70
2022/05/05 03:55:19;;;;;;;8.40;7.60;;;9.40;99.90;;;;;;6275659;22;20179;-68
2022/05/05 03:57:48;;;;;;;7.50;6.53;;;9.50;99.90;;;;;;6273980;22;20691;-69
2022/05/05 04:00:16;;;;;;;7.78;6.78;;;9.50;99.90;;;;;;6273748;22;20178;-69
2022/05/05 04:02:42;;;;;;;9.20;8.30;;;9.50;99.90;;;;;;6273806;22;20175;-69
2022/05/05 04:05:09;;;;;;;8.07;7.30;;;9.50;99.90;;;;;;6274073;22;20641;-70
2022/05/05 04:07:37;;;;;;;8.80;7.30;;;9.50;99.90;;;;;;6273967;22;20200;-69
2022/05/05 04:10:05;;;;;;;8.05;7.30;;;9.50;99.90;;;;;;6273593;22;20176;-68
2022/05/05 04:12:32;;;;;;;8.02;7.32;;;9.60;99.90;;;;;;6273805;22;20176;-69
2022/05/05 04:14:58;;;;;;;8.95;7.45;;;9.60;99.90;;;;;;6274450;22;20182;-69
2022/05/05 04:17:25;;;;;;;7.43;6.72;;;9.60;99.90;;;;;;6273817;22;20714;-70
2022/05/05 04:19:52;;;;;;;7.38;6.50;;;9.70;99.90;;;;;;6274044;22;20175;-69
2022/05/05 04:22:18;;;;;;;7.97;7.25;;;9.70;99.90;;;;;;6274563;22;20648;-70
2022/05/05 04:24:47;;;;;;;7.70;7.00;;;9.80;99.90;;;;;;6274469;22;20179;-69
2022/05/05 04:27:13;;;;;;;7.25;6.65;;;9.80;99.90;;;;;;6273218;22;20695;-70
2022/05/05 04:29:40;;;;;;;8.00;7.10;;;9.80;99.90;;;;;;6273238;22;20183;-70
2022/05/05 04:32:09;;;;;;;7.93;7.22;;;9.90;99.90;;;;;;6273304;22;20521;-70
2022/05/05 04:34:35;;;;;;;9.55;7.97;;;9.90;99.90;;;;;;6273079;22;20175;-70
2022/05/05 04:37:02;;;;;;;7.85;7.13;;;10.00;99.90;;;;;;6273942;22;20171;-70
2022/05/05 04:39:29;;;;;;;8.13;7.43;;;10.00;99.90;;;;;;6273164;22;20199;-69
2022/05/05 04:41:57;;;;;;;8.15;7.40;;;10.00;99.90;;;;;;6274441;22;20182;-70
2022/05/05 04:44:24;;;;;;;8.82;7.88;;;10.10;99.90;;;;;;6274172;22;20175;-70
2022/05/05 04:46:51;;;;;;;8.90;7.50;;;10.10;99.90;;;;;;6273725;22;20195;-69
2022/05/05 04:49:17;;;;;;;8.50;7.80;;;10.20;99.90;;;;;;6273320;22;20198;-70
2022/05/05 04:51:44;;;;;;;8.32;7.18;;;10.20;99.90;;;;;;6274305;22;20544;-70
2022/05/05 04:54:11;;;;;;;7.18;6.50;;;10.20;99.90;;;;;;6274346;22;20172;-69
2022/05/05 04:56:38;;;;;;;8.30;7.47;;;10.30;99.90;;;;;;6264476;22;20212;-68
2022/05/05 04:59:06;;;;;;;7.20;6.60;;;10.30;99.90;;;;;;6273390;22;20241;-68
2022/05/05 05:01:32;;;;;;;8.23;7.32;;;10.30;99.90;;;;;;6273884;22;20187;-69
2022/05/05 05:03:59;;;;;;;8.40;7.60;;;10.40;99.90;;;;;;6274189;22;20176;-68
2022/05/05 05:06:26;;;;;;;8.48;7.57;;;10.40;99.90;;;;;;6273708;22;20224;-67
2022/05/05 05:08:53;;;;;;;7.72;6.97;;;10.50;99.90;;;;;;6272765;22;20195;-68
2022/05/05 05:11:20;;;;;;;7.97;7.28;;;10.50;99.90;;;;;;6273966;22;20194;-68
2022/05/05 05:13:46;;;;;;;8.13;7.22;;;10.60;99.90;;;;;;6274098;22;20195;-67
2022/05/05 05:16:14;;;;;;;8.05;7.35;;;10.60;99.90;;;;;;6274248;22;20176;-68
2022/05/05 05:18:41;;;;;;;8.98;8.10;;;10.70;99.90;;;;;;6273307;22;20196;-68
2022/05/05 05:21:08;;;;;;;7.93;7.13;;;10.80;99.90;;;;;;6274089;22;20172;-69
2022/05/05 05:23:35;;;;;;;8.25;7.45;;;10.80;99.90;;;;;;6273653;22;20180;-68
2022/05/05 05:26:01;;;;;;;8.82;8.02;;;10.80;99.90;;;;;;6274026;22;20176;-68
2022/05/05 05:28:28;;;;;;;9.55;7.55;;;10.80;99.90;;;;;;6273180;22;20542;-69
2022/05/05 05:30:55;;;;;;;8.23;7.53;;;10.90;99.90;;;;;;6274123;22;20183;-68
2022/05/05 05:33:23;;;;;;;8.80;7.90;;;11.00;99.90;;;;;;6274050;22;20176;-69
2022/05/05 05:35:50;;;;;;;8.73;7.93;;;11.00;99.90;;;;;;6274273;22;20176;-68
2022/05/05 05:38:19;;;;;;;8.10;7.30;;;11.10;99.90;;;;;;6272832;22;20989;-69
2022/05/05 05:40:47;;;;;;;8.07;7.38;;;11.10;99.90;;;;;;6274113;22;20196;-68
2022/05/05 05:43:14;;;;;;;7.47;6.82;;;11.20;99.90;;;;;;6273862;22;20233;-68
2022/05/05 05:45:40;;;;;;;7.97;7.27;;;11.30;99.90;;;;;;6273887;22;20180;-69
2022/05/05 05:48:07;;;;;;;8.73;7.80;;;11.40;99.90;;;;;;6272982;22;20993;-68
2022/05/05 05:50:35;;;;;;;7.68;7.00;;;11.50;99.90;;;;;;6273727;22;20187;-69
2022/05/05 05:53:02;;;;;;;7.95;7.25;;;11.60;99.90;;;;;;6273905;22;20172;-69
2022/05/05 05:55:29;;;;;;;8.37;7.57;;;11.70;99.90;;;;;;6273336;22;20179;-68
2022/05/05 05:57:56;;;;;;;7.97;7.27;;;11.80;99.90;;;;;;6273908;22;20470;-67
2022/05/05 06:00:22;;;;;;;7.90;7.20;;;11.80;99.90;;;;;;6275035;22;20425;-68
2022/05/05 06:05:35;;;;;;;8.50;7.67;;;11.90;99.90;;;;;;6275067;22;20432;-69
2022/05/05 06:08:02;;;;;;;7.83;7.13;;;12.00;99.90;;;;;;6274392;22;21394;-68
2022/05/05 06:10:31;;;;;;;9.90;7.20;;;12.10;99.90;;;;;;6274826;22;21055;-68
2022/05/05 06:12:58;;;;;;;10.00;7.03;;;12.10;99.90;;;;;;6275163;22;20977;-68
2022/05/05 06:15:25;;;;;;;7.23;6.17;;;12.20;99.90;;;;;;6275020;22;20696;-68
2022/05/05 06:17:52;;;;;;;6.70;6.10;;;12.30;99.90;;;;;;6275125;22;20434;-68
2022/05/05 06:20:19;;;;;;;7.80;6.97;;;12.40;99.90;;;;;;6274436;22;20424;-67
2022/05/05 06:22:50;;;;;;;7.30;6.60;;;12.50;99.90;;;;;;6275476;22;20421;-68
2022/05/05 06:25:18;;;;;;;7.57;6.73;;;12.60;99.90;;;;;;6275619;22;20403;-68
2022/05/05 06:27:45;;;;;;;7.83;6.70;;;12.80;99.90;;;;;;6274850;22;20445;-69
2022/05/05 06:30:13;;;;;;;7.33;6.63;;;12.90;99.90;;;;;;6274639;22;20425;-68
2022/05/05 06:32:40;;;;;;;7.50;6.80;;;13.00;99.90;;;;;;6275221;22;20418;-69
2022/05/05 06:35:07;;;;;;;6.80;6.27;;;13.20;99.90;;;;;;6274714;22;20421;-68
2022/05/05 06:37:34;;;;;;;7.20;6.50;;;13.40;99.90;;;;;;6275044;22;20444;-67
2022/05/05 06:40:03;;;;;;;6.83;5.70;;;13.50;99.90;;;;;;6274447;22;20425;-68
2022/05/05 06:42:30;;;;;;;6.40;5.80;;;13.50;99.90;;;;;;6274502;22;20418;-68
2022/05/05 06:44:57;;;;;;;6.20;5.60;;;13.60;99.90;;;;;;6275046;22;20415;-68
2022/05/05 06:47:25;;;;;;;6.80;6.10;;;13.60;99.90;;;;;;6274779;22;20445;-68
2022/05/05 06:49:51;;;;;;;7.73;5.90;;;13.50;99.90;;;;;;6274560;22;20414;-67
2022/05/05 06:52:18;;;;;;;8.40;6.70;;;13.50;99.90;;;;;;6275095;22;20420;-68
2022/05/05 06:54:45;;;;;;;6.70;6.10;;;13.40;99.90;;;;;;6275186;22;20418;-68
2022/05/05 06:57:13;;;;;;;8.07;5.80;;;13.40;99.90;;;;;;6274749;22;20770;-68
2022/05/05 06:59:40;;;;;;;7.13;6.43;;;13.40;99.90;;;;;;6274209;22;20422;-68
2022/05/05 07:02:07;;;;;;;8.70;6.30;;;13.40;99.90;;;;;;6275235;22;20802;-69
2022/05/05 07:07:20;;;;;;;6.80;6.20;;;13.40;99.90;;;;;;6274924;22;20518;-68
2022/05/05 07:12:34;;;;;;;8.10;6.20;;;13.50;99.90;;;;;;6274854;22;20437;-68
2022/05/05 07:15:01;;;;;;;7.10;6.40;;;13.50;99.90;;;;;;6275099;22;20425;-69
2022/05/05 07:17:28;;;;;;;7.90;6.83;;;13.50;99.90;;;;;;6274826;22;20418;-69
2022/05/05 07:19:54;;;;;;;7.77;7.00;;;13.60;99.90;;;;;;6274460;22;20414;-69
2022/05/05 07:22:21;;;;;;;10.90;7.70;;;13.50;99.90;;;;;;6274983;22;20418;-67
2022/05/05 07:24:48;;;;;;;8.30;7.40;;;13.60;99.90;;;;;;6274945;22;20732;-68
2022/05/05 07:27:15;;;;;;;7.60;6.90;;;13.70;99.90;;;;;;6274629;22;20439;-68
2022/05/05 07:29:43;;;;;;;8.60;7.80;;;13.70;99.90;;;;;;6273867;22;20419;-68
2022/05/05 07:32:11;;;;;;;8.13;7.33;;;13.70;99.90;;;;;;6274691;22;20737;-68
2022/05/05 07:34:38;;;;;;;8.13;6.80;;;13.70;99.90;;;;;;6274978;22;20414;-69
2022/05/05 07:37:05;;;;;;;9.27;7.87;;;13.70;99.90;;;;;;6274762;22;20464;-69
2022/05/05 07:39:32;;;;;;;7.40;6.70;;;13.80;99.90;;;;;;6273956;22;20438;-68
2022/05/05 07:41:59;;;;;;;9.07;7.80;;;13.90;99.90;;;;;;6274846;22;20418;-69
2022/05/05 07:44:26;;;;;;;8.30;7.40;;;14.00;99.90;;;;;;6274889;22;20430;-68
2022/05/05 07:46:54;;;;;;;8.83;7.90;;;14.10;99.90;;;;;;6274535;22;20468;-70
2022/05/05 07:49:21;;;;;;;8.63;7.83;;;14.20;99.90;;;;;;6273870;22;20466;-69
2022/05/05 07:51:50;;;;;;;9.57;8.57;;;14.20;99.90;;;;;;6274636;22;20422;-68
2022/05/05 07:57:01;;;;;;;8.90;8.10;;;14.20;99.90;;;;;;6274149;22;20467;-68
2022/05/05 07:59:27;;;;;;;11.03;7.97;;;14.20;99.90;;;;;;6273822;22;20843;-69
2022/05/05 08:01:57;;;;;;;9.33;8.33;;;14.10;99.90;;;;;;6274803;22;20425;-68
2022/05/05 08:04:24;;;;;;;9.30;8.50;;;14.10;99.90;;;;;;6274452;22;20422;-68
2022/05/05 08:06:50;;;;;;;10.10;9.00;;;14.00;99.90;;;;;;6274999;22;20421;-69
2022/05/05 08:09:17;;;;;;;10.00;7.83;;;14.00;99.90;;;;;;6273627;22;20446;-69
2022/05/05 08:11:44;;;;;;;9.90;8.90;;;14.00;99.90;;;;;;6273902;22;20464;-69
2022/05/05 08:14:11;;;;;;;9.20;8.27;;;14.10;99.90;;;;;;6274011;22;20444;-68
2022/05/05 08:16:38;;;;;;;9.10;8.20;;;14.10;99.90;;;;;;6273928;22;21258;-68
2022/05/05 08:19:06;;;;;;;10.20;9.03;;;14.20;99.90;;;;;;6273697;22;20434;-71
2022/05/05 08:21:33;;;;;;;13.43;9.50;;;14.20;99.90;;;;;;6273260;22;20522;-67
2022/05/05 08:29:31;;;;;;;11.90;9.27;;;14.40;99.90;;;;;;6271659;22;20438;-71
2022/05/05 08:31:58;;;;;;;10.03;9.10;;;14.50;99.90;;;;;;6270158;22;20422;-69
2022/05/05 08:34:26;;;;;;;9.73;8.73;;;14.50;99.90;;;;;;6271554;22;20417;-69
2022/05/05 08:36:53;;;;;;;9.60;8.67;;;14.60;99.90;;;;;;6272335;22;20410;-69
2022/05/05 08:39:20;;;;;;;13.87;10.43;;;14.70;99.90;;;;;;6270855;22;20439;-69
2022/05/05 08:41:47;;;;;;;13.50;11.23;;;14.80;99.90;;;;;;6272357;22;20419;-68
2022/05/05 08:44:14;;;;;;;9.43;8.43;;;14.80;99.90;;;;;;6272001;22;20421;-69
2022/05/05 08:46:47;;;;;;;11.57;9.80;;;14.80;99.90;;;;;;6271849;22;20854;-69
2022/05/05 08:49:14;;;;;;;10.70;9.33;;;15.00;99.90;;;;;;6271581;22;20862;-69
2022/05/05 08:51:45;;;;;;;11.83;10.07;;;15.00;99.90;;;;;;6273060;22;20502;-69
2022/05/05 08:54:16;;;;;;;10.47;8.57;;;15.00;99.90;;;;;;6271730;22;20951;-69
2022/05/05 08:56:43;;;;;;;9.83;8.73;;;15.00;99.90;;;;;;6271674;22;20437;-68
2022/05/05 08:59:11;;;;;;;9.90;8.60;;;14.90;99.90;;;;;;6270879;22;20546;-68
2022/05/05 09:01:39;;;;;;;9.77;8.83;;;14.90;99.90;;;;;;6271502;22;20422;-69
2022/05/05 09:04:06;;;;;;;9.57;8.67;;;14.90;99.90;;;;;;6271972;22;20442;-69
2022/05/05 09:06:46;;;;;;;10.13;8.90;;;14.90;99.90;;;;;;6271823;22;20453;-69
2022/05/05 09:09:27;;;;;;;16.83;10.10;;;15.00;99.90;;;;;;6270938;22;20442;-69
2022/05/05 09:12:25;;;;;;;12.47;8.93;;;15.00;99.90;;;;;;6271853;22;20418;-68
2022/05/05 09:14:53;;;;;;;12.50;9.10;;;14.90;99.90;;;;;;6147730;23;20406;-68
2022/05/05 09:17:21;;;;;;;10.27;9.27;;;14.90;99.90;;;;;;6244449;22;20460;-68
2022/05/05 09:19:49;;;;;;;10.37;9.23;;;14.90;99.90;;;;;;6270994;22;20425;-68
2022/05/05 09:22:20;;;;;;;12.53;10.60;;;14.80;99.90;;;;;;6271819;22;20418;-68
2022/05/05 09:24:51;;;;;;;11.10;9.97;;;14.70;99.90;;;;;;6271092;22;20421;-68
2022/05/05 09:27:23;;;;;;;13.23;11.03;;;14.60;99.90;;;;;;6271626;22;20464;-68
2022/05/05 09:30:01;;;;;;;14.87;11.90;;;14.50;99.90;;;;;;6271115;22;20398;-68
2022/05/05 09:32:29;;;;;;;12.80;10.13;;;14.40;99.90;;;;;;6270706;22;20417;-69
2022/05/05 09:34:58;;;;;;;15.00;12.10;;;14.40;99.90;;;;;;6273735;22;20789;-68
2022/05/05 09:37:26;;;;;;;12.70;11.40;;;14.40;99.90;;;;;;6273776;22;20414;-67
2022/05/05 09:39:57;;;;;;;14.47;12.97;;;14.40;99.90;;;;;;6272640;22;20421;-68
2022/05/05 09:42:37;;;;;;;12.50;11.20;;;14.40;99.90;;;;;;6274493;22;20414;-69
2022/05/05 09:45:21;;;;;;;13.50;10.97;;;14.40;99.90;;;;;;6272216;22;20446;-68
2022/05/05 09:47:50;;;;;;;11.67;10.57;;;14.40;99.90;;;;;;6273772;22;20446;-69
2022/05/05 09:50:20;;;;;;;13.97;11.83;;;14.40;99.90;;;;;;6273277;22;20418;-68
2022/05/05 09:58:22;;;;;;;12.87;11.50;;;14.60;99.90;;;;;;6272695;22;20434;-67
2022/05/05 10:00:58;;;;;;;15.20;12.87;;;14.70;99.90;;;;;;6273166;22;20418;-69
2022/05/05 10:06:19;;;;;;;12.70;11.50;;;14.70;99.90;;;;;;6283685;22;20392;-69
2022/05/05 10:08:51;;;;;;;17.27;14.10;;;14.70;99.90;;;;;;6271928;22;20994;-69
2022/05/05 10:11:19;;;;;;;14.80;13.40;;;14.70;99.90;;;;;;6273726;22;20414;-70
2022/05/05 10:13:49;;;;;;;14.00;12.57;;;14.70;99.90;;;;;;6270229;22;20469;-68
2022/05/05 10:16:16;;;;;;;13.90;12.50;;;14.70;99.90;;;;;;6274668;22;20509;-68
2022/05/05 10:18:43;;;;;;;14.40;13.00;;;14.70;99.90;;;;;;6273534;22;20938;-68
2022/05/05 10:21:19;;;;;;;17.17;14.27;;;14.70;99.90;;;;;;6274332;22;20509;-67
2022/05/05 10:23:59;;;;;;;14.07;12.57;;;14.80;99.90;;;;;;6274218;22;20800;-70
2022/05/05 10:26:26;;;;;;;16.20;13.40;;;14.80;99.90;;;;;;6274607;22;20402;-69
2022/05/05 10:28:53;;;;;;;17.27;15.30;;;14.90;99.90;;;;;;6273257;22;20453;-69
2022/05/05 10:31:47;;;;;;;15.60;13.90;;;14.80;99.90;;;;;;6274486;22;20419;-68
2022/05/05 10:34:16;;;;;;;14.53;11.97;;;14.90;99.90;;;;;;6200811;22;20946;-68
2022/05/05 10:36:59;;;;;;;16.57;14.53;;;15.00;99.90;;;;;;6273976;22;20410;-68
2022/05/05 10:39:42;;;;;;;14.93;13.63;;;15.20;99.90;;;;;;6273672;22;20426;-70
2022/05/05 10:42:14;;;;;;;16.17;14.37;;;15.40;99.90;;;;;;6275630;22;20399;-68
2022/05/05 10:45:13;;;;;;;15.13;13.63;;;15.50;99.90;;;;;;6275677;22;20414;-70
2022/05/05 10:48:17;;;;;;;17.30;15.17;;;15.50;99.90;;;;;;6274410;22;20434;-69
2022/05/05 10:51:05;;;;;;;15.93;14.40;;;15.40;99.90;;;;;;6274220;22;20402;-68
2022/05/05 10:53:36;;;;;;;15.83;14.13;;;15.20;99.90;;;;;;6274524;22;20449;-69
2022/05/05 10:56:06;;;;;;;17.73;15.33;;;15.20;99.90;;;;;;6273959;22;20532;-69
2022/05/05 10:58:58;;;;;;;15.20;13.60;;;15.20;99.90;;;;;;6273246;22;20439;-69
2022/05/05 11:01:26;;;;;;;16.73;15.03;;;15.30;99.90;;;;;;6274156;22;20418;-68
2022/05/05 11:04:06;;;;;;;17.87;16.03;;;15.30;99.90;;;;;;6274374;22;20931;-69
2022/05/05 11:06:34;;;;;;;15.93;14.33;;;15.30;99.90;;;;;;6273924;22;20461;-68
2022/05/05 11:09:00;;;;;;;16.33;14.73;;;15.30;99.90;;;;;;6272796;22;20482;-69
2022/05/05 11:11:41;;;;;;;18.07;16.37;;;15.30;99.90;;;;;;6273595;22;20903;-69
2022/05/05 11:22:45;;;;;;;18.30;16.37;;;15.40;99.90;;;;;;6274060;22;20945;-68
2022/05/05 11:25:12;;;;;;;17.57;15.87;;;15.50;99.90;;;;;;6273938;22;20753;-68
2022/05/05 11:27:41;;;;;;;17.30;15.67;;;15.60;99.90;;;;;;6273820;22;21091;-69
2022/05/05 11:30:13;;;;;;;17.80;16.07;;;15.60;99.90;;;;;;6273445;22;20468;-68
2022/05/05 11:32:43;;;;;;;16.27;14.60;;;15.60;99.90;;;;;;6274122;22;20403;-67
2022/05/05 11:35:11;;;;;;;16.03;14.47;;;15.50;99.90;;;;;;6273916;22;20425;-68
2022/05/05 11:37:43;;;;;;;15.20;13.70;;;15.50;99.90;;;;;;6273927;22;20469;-68
2022/05/05 11:40:12;;;;;;;16.20;14.60;;;15.40;99.90;;;;;;6272567;22;20399;-68
2022/05/05 11:45:27;;;;;;;16.03;14.63;;;15.10;99.90;;;;;;6271766;22;20792;-68
2022/05/05 11:47:54;;;;;;;16.80;15.20;;;15.00;99.90;;;;;;6274134;22;20430;-68
2022/05/05 11:50:21;;;;;;;16.97;15.40;;;14.90;99.90;;;;;;6272756;22;20922;-68
2022/05/05 11:52:48;;;;;;;17.80;15.90;;;14.90;99.90;;;;;;6273879;22;20421;-67
2022/05/05 11:55:20;;;;;;;17.17;15.67;;;14.90;99.90;;;;;;6273529;22;20422;-68
2022/05/05 11:57:50;;;;;;;16.77;15.27;;;15.00;99.90;;;;;;6273375;22;20438;-69
2022/05/05 12:03:04;;;;;;;15.80;14.20;;;15.00;99.90;;;;;;6273772;22;20401;-71
2022/05/05 12:05:32;;;;;;;16.10;14.50;;;15.10;99.90;;;;;;6273355;22;20425;-71
2022/05/05 12:07:59;;;;;;;16.37;14.83;;;15.20;99.90;;;;;;6273020;22;20439;-72
2022/05/05 12:10:35;;;;;;;17.43;15.63;;;15.10;99.90;;;;;;6273535;22;20445;-71
2022/05/05 12:13:03;;;;;;;16.47;14.20;;;15.00;99.90;;;;;;6273639;22;20403;-71
2022/05/05 12:15:29;;;;;;;15.50;14.10;;;15.00;99.90;;;;;;6274120;22;20419;-72
2022/05/05 12:17:58;;;;;;;17.60;15.63;;;15.10;99.90;;;;;;6273441;22;20422;-71
2022/05/05 12:20:26;;;;;;;17.23;15.43;;;15.10;99.90;;;;;;6273418;22;20416;-70
2022/05/05 12:22:57;;;;;;;16.27;14.67;;;15.10;99.90;;;;;;6273257;22;20414;-71
2022/05/05 12:25:25;;;;;;;18.90;16.97;;;15.30;99.90;;;;;;6273006;22;20418;-70
2022/05/05 12:28:06;;;;;;;17.80;15.80;;;15.50;99.90;;;;;;6273282;22;20445;-70
2022/05/05 12:30:34;;;;;;;17.80;16.00;;;15.60;99.90;;;;;;6273349;22;20433;-71
2022/05/05 12:33:01;;;;;;;17.90;16.20;;;15.70;99.90;;;;;;6273287;22;20418;-72
2022/05/05 12:35:30;;;;;;;17.90;16.00;;;15.80;99.90;;;;;;6273137;22;20419;-70
2022/05/05 12:37:57;;;;;;;17.03;15.23;;;16.10;99.90;;;;;;6273090;22;20439;-70
2022/05/05 12:40:24;;;;;;;17.93;16.13;;;16.30;99.90;;;;;;6273351;22;20422;-71
2022/05/05 12:42:51;;;;;;;18.60;16.70;;;16.40;99.90;;;;;;6273330;22;20780;-71
2022/05/05 12:45:20;;;;;;;17.97;16.20;;;16.50;99.90;;;;;;6272517;22;20418;-72
2022/05/05 12:47:49;;;;;;;19.30;16.10;;;16.80;99.90;;;;;;6270576;22;20943;-71
2022/05/05 12:50:35;;;;;;;16.50;14.57;;;17.00;99.90;;;;;;6271604;22;20811;-71
2022/05/05 13:01:30;;;;;;;16.70;15.10;;;16.60;99.90;;;;;;6283152;22;20386;-71
2022/05/05 13:03:58;;;;;;;19.07;17.17;;;16.40;99.90;;;;;;6272761;22;20394;-71
2022/05/05 13:06:26;;;;;;;19.30;17.47;;;16.30;99.90;;;;;;6273048;22;20414;-71
2022/05/05 13:08:53;;;;;;;19.53;17.00;;;16.50;99.90;;;;;;6271899;22;20762;-70
2022/05/05 13:11:21;;;;;;;21.67;17.23;;;16.70;99.90;;;;;;6272787;22;20418;-72
2022/05/05 13:13:48;;;;;;;18.00;16.33;;;16.80;99.90;;;;;;6272844;22;20513;-72
2022/05/05 13:16:16;;;;;;;17.40;15.60;;;17.10;99.90;;;;;;6272197;22;20448;-71
2022/05/05 13:18:44;;;;;;;17.40;15.70;;;17.50;99.90;;;;;;6271981;22;20434;-71
2022/05/05 13:21:12;;;;;;;18.80;16.93;;;17.90;99.90;;;;;;6273303;22;20422;-72
2022/05/05 13:23:38;;;;;;;18.63;16.73;;;18.00;99.90;;;;;;6272977;22;20429;-71
2022/05/05 13:26:06;;;;;;;16.50;14.83;;;18.00;99.90;;;;;;6272590;22;20429;-71
2022/05/05 13:28:33;;;;;;;16.90;15.20;;;18.00;99.90;;;;;;6272066;22;20484;-72
2022/05/05 13:31:00;;;;;;;16.83;15.03;;;18.20;99.90;;;;;;6273050;22;20426;-71
2022/05/05 13:33:26;;;;;;;16.07;14.27;;;18.30;99.90;;;;;;6272355;22;20633;-70
2022/05/05 13:35:55;;;;;;;17.37;15.63;;;18.50;99.90;;;;;;6272553;22;20422;-69
2022/05/05 13:38:23;;;;;;;15.63;14.03;;;18.50;99.90;;;;;;6271560;22;20443;-70
2022/05/05 13:40:49;;;;;;;16.17;14.57;;;18.60;99.90;;;;;;6272317;22;20418;-71
2022/05/05 13:43:16;;;;;;;17.27;15.60;;;18.40;99.90;;;;;;6272836;22;20419;-70
2022/05/05 13:45:43;;;;;;;15.93;14.30;;;18.30;99.90;;;;;;6272865;22;20422;-70
2022/05/05 13:48:10;;;;;;;14.93;13.43;;;18.20;99.90;;;;;;6271143;22;21065;-71